Time;durP1;ratioP1;P1;durP2;ratioP2;P2;SDS_P1;SDS_P2;PMS_P1;PMS_P2;Temp;Humidity;BMP_temperature;BMP_pressure;BME280_temperature;BME280_humidity;BME280_pressure;Samples;Min_cycle;Max_cycle;Signal;HPM_P1;HPM_P2
2022/04/03 04:30:11;;;;;;;;;13.00;9.25;;;;;7.33;44.12;101867.69;5060654;27;45716;-76
2022/04/03 04:32:37;;;;;;;;;17.75;13.50;;;;;7.27;44.65;101866.00;5034268;28;45393;-77
2022/04/03 04:35:03;;;;;;;;;11.00;11.00;;;;;7.34;44.33;101880.13;5034339;28;45354;-74
2022/04/03 04:37:29;;;;;;;;;11.00;10.00;;;;;7.21;43.87;101867.00;5034476;28;45340;-77
2022/04/03 04:39:55;;;;;;;;;12.50;11.00;;;;;7.34;44.19;101874.81;5017437;28;45486;-75
2022/04/03 04:42:20;;;;;;;;;12.00;12.00;;;;;7.31;44.21;101878.41;5033863;28;45447;-73
2022/04/03 04:44:47;;;;;;;;;10.50;10.50;;;;;7.29;44.24;101877.53;5038009;28;45328;-75
2022/04/03 04:47:12;;;;;;;;;12.75;11.00;;;;;7.16;44.18;101854.59;5019760;28;45918;-72
2022/04/03 04:49:37;;;;;;;;;9.00;7.75;;;;;7.23;43.77;101881.16;5037898;28;45453;-74
2022/04/03 04:52:03;;;;;;;;;10.50;9.75;;;;;7.14;43.73;101884.00;5037260;28;45471;-72
2022/04/03 04:54:30;;;;;;;;;12.50;11.75;;;;;7.13;43.93;101892.00;5046542;28;46260;-74
2022/04/03 04:56:55;;;;;;;;;11.75;9.25;;;;;6.97;44.69;101866.44;5039055;28;45234;-74
2022/04/03 04:59:20;;;;;;;;;14.00;11.00;;;;;7.04;44.20;101886.78;5037581;28;45225;-77
2022/04/03 05:01:46;;;;;;;;;10.50;9.75;;;;;6.88;44.51;101864.78;5037109;28;45546;-72
2022/04/03 05:04:11;;;;;;;;;7.75;7.75;;;;;7.04;44.58;101898.34;5036500;28;46330;-73
2022/04/03 05:06:38;;;;;;;;;12.00;11.50;;;;;7.03;44.83;101896.56;5036612;28;45406;-74
2022/04/03 05:09:04;;;;;;;;;10.50;10.50;;;;;6.98;44.85;101895.72;5019252;28;45408;-75
2022/04/03 05:11:31;;;;;;;;;15.00;10.50;;;;;6.91;44.66;101899.38;5036949;28;45502;-73
2022/04/03 05:13:58;;;;;;;;;11.75;10.50;;;;;6.88;44.51;101896.78;5037198;28;45501;-75
2022/04/03 05:16:24;;;;;;;;;10.25;10.25;;;;;6.88;44.99;101903.88;5036723;28;45321;-74
2022/04/03 05:18:50;;;;;;;;;12.75;9.25;;;;;6.84;44.87;101905.69;5037331;28;45496;-73
2022/04/03 05:21:16;;;;;;;;;10.50;8.00;;;;;6.81;44.92;101916.38;5036877;28;45387;-74
2022/04/03 05:23:41;;;;;;;;;11.25;10.25;;;;;6.73;44.68;101916.47;5037059;28;46146;-73
2022/04/03 05:26:07;;;;;;;;;10.75;10.75;;;;;6.74;44.73;101912.03;5018459;28;45375;-75
2022/04/03 05:28:32;;;;;;;;;12.25;10.00;;;;;6.69;45.03;101913.88;5036997;28;45392;-73
2022/04/03 05:30:58;;;;;;;;;15.75;11.50;;;;;6.54;45.39;101909.59;5036599;28;45343;-73
2022/04/03 05:33:24;;;;;;;;;14.00;10.25;;;;;6.61;44.71;101929.94;5036798;28;46010;-72
2022/04/03 05:35:50;;;;;;;;;11.50;11.50;;;;;6.48;45.13;101909.66;5036924;28;45512;-73
2022/04/03 05:38:16;;;;;;;;;12.25;11.75;;;;;6.52;44.86;101926.50;5037192;28;45281;-74
2022/04/03 05:40:42;;;;;;;;;13.00;9.50;;;;;6.41;45.02;101918.59;5036634;28;45277;-73
2022/04/03 05:43:08;;;;;;;;;10.00;10.00;;;;;6.45;44.94;101931.88;5036334;28;45949;-74
2022/04/03 05:45:34;;;;;;;;;10.50;9.75;;;;;6.43;44.73;101927.47;5036653;28;45342;-75
2022/04/03 05:47:59;;;;;;;;;10.25;9.50;;;;;6.46;45.21;101936.28;5036440;28;45323;-75
2022/04/03 05:50:24;;;;;;;;;12.50;12.50;;;;;6.44;45.08;101929.22;5036579;28;45439;-74
2022/04/03 05:52:51;;;;;;;;;14.50;12.25;;;;;6.40;45.39;101935.47;5036926;28;45253;-74
2022/04/03 05:55:18;;;;;;;;;10.00;10.00;;;;;6.38;45.53;101937.28;5048460;28;45437;-74
2022/04/03 05:57:48;;;;;;;;;10.50;9.00;;;;;6.37;45.26;101932.88;5018150;28;45378;-73
2022/04/03 06:00:15;;;;;;;;;16.75;13.50;;;;;6.21;45.15;101907.28;5036277;28;45310;-75
2022/04/03 06:02:54;;;;;;;;;11.75;10.00;;;;;6.38;45.40;101937.28;5036292;28;45987;-74
2022/04/03 06:05:31;;;;;;;;;11.50;10.00;;;;;6.38;44.95;101938.16;5036090;28;45382;-74
2022/04/03 06:07:57;;;;;;;;;11.00;11.00;;;;;6.39;44.24;101942.59;5036347;28;45303;-74
2022/04/03 06:10:24;;;;;;;;;17.50;12.00;;;;;6.38;44.77;101945.28;5036338;28;45309;-74
2022/04/03 06:12:55;;;;;;;;;10.75;10.25;;;;;6.39;45.09;101949.69;5036031;28;46532;-75
2022/04/03 06:15:21;;;;;;;;;12.50;11.00;;;;;6.44;44.84;101947.88;5036477;28;45455;-75
2022/04/03 06:17:48;;;;;;;;;13.75;11.75;;;;;6.36;44.81;101928.44;5035972;28;45352;-75
2022/04/03 06:20:13;;;;;;;;;13.75;13.75;;;;;6.45;44.86;101950.53;5035982;28;45184;-74
2022/04/03 06:22:39;;;;;;;;;15.00;10.00;;;;;6.48;44.78;101962.91;5036154;28;45638;-74
2022/04/03 06:25:06;;;;;;;;;11.00;11.00;;;;;6.49;44.29;101956.69;5036156;28;45220;-73
2022/04/03 06:27:32;;;;;;;;;12.00;10.75;;;;;6.44;43.75;101954.09;5031955;28;45397;-75
2022/04/03 06:29:57;;;;;;;;;11.50;10.50;;;;;6.53;44.04;101965.56;5035704;28;45509;-73
2022/04/03 06:32:23;;;;;;;;;13.75;12.25;;;;;6.52;43.99;101961.13;5035121;28;45497;-74
2022/04/03 06:34:48;;;;;;;;;10.00;10.00;;;;;6.43;43.87;101948.78;5017888;28;45616;-74
2022/04/03 06:37:13;;;;;;;;;11.50;10.00;;;;;6.56;43.89;101968.16;5035913;28;45448;-74
2022/04/03 06:39:38;;;;;;;;;14.50;10.25;;;;;6.56;44.05;101958.41;5035899;28;45300;-74
2022/04/03 06:42:04;;;;;;;;;10.75;10.75;;;;;6.54;43.54;101962.00;5035480;28;46372;-75
2022/04/03 06:44:30;;;;;;;;;12.50;11.00;;;;;6.54;43.63;101973.53;5033849;28;45513;-76
2022/04/03 06:46:56;;;;;;;;;14.25;11.75;;;;;6.57;43.52;101978.81;5036815;28;45478;-74
2022/04/03 06:49:21;;;;;;;;;15.50;11.00;;;;;6.58;43.77;101983.25;5035450;28;45383;-75
2022/04/03 06:51:47;;;;;;;;;12.00;10.75;;;;;6.50;43.57;101963.78;5035476;28;45935;-74
2022/04/03 06:54:12;;;;;;;;;11.00;11.00;;;;;6.71;43.39;101992.03;5044237;28;45284;-76
2022/04/03 06:56:38;;;;;;;;;16.00;10.00;;;;;6.86;43.44;101993.63;5039759;28;45489;-76
2022/04/03 06:59:04;;;;;;;;;16.00;11.00;;;;;6.91;42.83;101978.47;5036707;28;45219;-75
2022/04/03 07:01:29;;;;;;;;;11.75;11.00;;;;;7.04;42.34;101997.00;5017607;28;48076;-74
2022/04/03 07:03:54;;;;;;;;;11.00;11.00;;;;;7.02;42.31;101989.91;5035529;28;45380;-77
2022/04/03 07:06:20;;;;;;;;;10.50;9.25;;;;;6.96;41.58;101990.88;5034967;28;45315;-72
2022/04/03 07:08:48;;;;;;;;;9.25;5.00;;;;;6.94;42.54;101999.78;5035211;28;45456;-73
2022/04/03 07:11:14;;;;;;;;;14.75;13.00;;;;;6.97;42.79;101997.09;5034578;28;47084;-73
2022/04/03 07:13:39;;;;;;;;;14.50;12.00;;;;;6.94;41.70;101997.09;5035482;28;45396;-75
2022/04/03 07:16:05;;;;;;;;;14.25;12.50;;;;;6.95;42.01;102004.22;5035195;28;45537;-73
2022/04/03 07:18:31;;;;;;;;;10.75;10.75;;;;;6.90;41.71;101998.03;5035168;28;45425;-75
2022/04/03 07:20:56;;;;;;;;;13.25;10.50;;;;;6.93;42.09;102000.66;5035453;28;45490;-75
2022/04/03 07:23:24;;;;;;;;;8.75;8.75;;;;;6.96;41.90;102003.31;5035423;28;45214;-78
2022/04/03 07:25:49;;;;;;;;;13.75;11.75;;;;;6.98;41.96;102010.38;5016058;28;45379;-75
2022/04/03 07:28:24;;;;;;;;;13.25;11.75;;;;;7.03;42.12;102018.34;5072484;28;45441;-55
2022/04/03 07:30:49;;;;;;;;;16.75;11.25;;;;;7.05;41.75;102017.44;5055776;28;45387;-55
2022/04/03 07:33:15;;;;;;;;;7.50;6.00;;;;;7.10;41.46;102010.25;5055731;28;45305;-54
2022/04/03 07:35:40;;;;;;;;;14.00;11.25;;;;;7.13;42.13;102017.34;5053737;28;45860;-54
2022/04/03 07:38:06;;;;;;;;;12.50;11.75;;;;;7.15;41.71;102016.41;5055468;28;46128;-52
2022/04/03 07:40:32;;;;;;;;;10.00;10.00;;;;;7.17;41.73;102013.72;5055542;28;45365;-52
2022/04/03 07:42:57;;;;;;;;;14.00;11.25;;;;;7.08;41.53;102001.38;5055533;28;45354;-55
2022/04/03 07:45:23;;;;;;;;;11.25;10.25;;;;;7.21;41.41;102015.47;5055520;28;45331;-54
2022/04/03 07:47:50;;;;;;;;;14.50;11.00;;;;;7.26;41.39;102023.41;5055173;28;46190;-55
2022/04/03 07:50:18;;;;;;;;;12.75;10.25;;;;;7.27;40.83;102019.84;5055648;28;45348;-56
2022/04/03 07:52:44;;;;;;;;;10.25;10.25;;;;;7.31;41.05;102025.13;5055556;28;45349;-55
2022/04/03 07:55:10;;;;;;;;;9.25;9.25;;;;;7.29;40.80;102013.59;5055208;28;45299;-55
2022/04/03 07:57:38;;;;;;;;;14.50;10.00;;;;;7.39;40.48;102022.38;5054979;28;47178;-55
2022/04/03 08:00:06;;;;;;;;;12.00;10.00;;;;;7.46;40.62;102016.03;5055198;28;45387;-54
2022/04/03 08:02:32;;;;;;;;;13.00;8.00;;;;;7.48;40.27;102016.91;5054932;28;45846;-56
2022/04/03 08:04:58;;;;;;;;;13.00;8.00;;;;;7.51;40.53;102024.84;5055092;28;45345;-54
2022/04/03 08:07:44;;;;;;;;;9.00;7.75;;;;;7.55;39.73;102029.28;5054908;28;45402;-53
2022/04/03 08:10:12;;;;;;;;;8.75;7.50;;;;;7.60;38.83;102038.09;5054863;28;45329;-54
2022/04/03 08:12:39;;;;;;;;;8.00;8.00;;;;;7.57;39.46;102035.47;5055008;28;45373;-52
2022/04/03 08:15:05;;;;;;;;;6.00;5.00;;;;;7.64;38.52;102034.50;5055000;28;45312;-55
2022/04/03 08:17:31;;;;;;;;;8.50;7.00;;;;;7.68;38.94;102038.88;5054641;28;46238;-53
2022/04/03 08:19:57;;;;;;;;;10.50;8.25;;;;;7.71;39.02;102032.63;5054638;28;45351;-55
2022/04/03 08:22:22;;;;;;;;;10.00;8.00;;;;;7.73;38.72;102044.16;5054831;28;45316;-53
2022/04/03 08:24:49;;;;;;;;;11.25;8.50;;;;;7.75;38.38;102043.22;5054537;28;45528;-55
2022/04/03 08:27:15;;;;;;;;;7.00;6.00;;;;;7.79;38.15;102046.75;5065022;28;46310;-52
2022/04/03 08:29:41;;;;;;;;;11.00;7.00;;;;;7.81;38.37;102051.16;5074760;28;45292;-53
2022/04/03 08:32:07;;;;;;;;;8.00;6.25;;;;;7.85;38.28;102044.84;5075154;28;45223;-54
2022/04/03 08:34:33;;;;;;;;;7.25;6.00;;;;;7.81;37.42;102051.16;5075030;28;45887;-54
2022/04/03 08:36:58;;;;;;;;;6.00;6.00;;;;;7.78;37.59;102048.53;5074890;28;45429;-54
2022/04/03 08:39:24;;;;;;;;;9.75;6.00;;;;;7.70;38.13;102029.06;5063195;28;45300;-53
2022/04/03 08:41:49;;;;;;;;;7.50;7.50;;;;;7.87;38.06;102050.19;5061426;28;45281;-55
2022/04/03 08:44:14;;;;;;;;;7.50;6.50;;;;;7.91;38.08;102038.56;5061271;28;45334;-55
2022/04/03 08:46:44;;;;;;;;;6.25;6.25;;;;;7.97;37.28;102052.72;5061229;28;45328;-52
2022/04/03 08:49:12;;;;;;;;;8.50;7.00;;;;;8.04;37.18;102047.28;5061289;28;45447;-57
2022/04/03 08:51:39;;;;;;;;;5.75;3.00;;;;;8.07;37.33;102049.91;5062231;28;45352;-55
2022/04/03 08:54:05;;;;;;;;;6.75;6.75;;;;;8.13;37.58;102047.13;5061247;28;45286;-55
2022/04/03 08:56:31;;;;;;;;;10.00;8.00;;;;;8.17;37.09;102040.81;5060941;28;45440;-56
2022/04/03 08:58:57;;;;;;;;;5.75;4.75;;;;;8.21;36.63;102045.22;5061293;28;45333;-55
2022/04/03 09:01:23;;;;;;;;;4.75;4.75;;;;;8.24;35.67;102043.41;5061135;28;45337;-53
2022/04/03 09:03:49;;;;;;;;;6.00;6.00;;;;;8.26;35.42;102035.34;5060855;28;45387;-54
2022/04/03 09:06:17;;;;;;;;;8.50;6.50;;;;;8.29;34.79;102029.97;5060956;28;46186;-53
2022/04/03 09:08:42;;;;;;;;;3.75;3.75;;;;;8.35;35.59;102043.25;5061225;28;45283;-54
2022/04/03 09:11:08;;;;;;;;;7.00;6.00;;;;;8.38;34.93;102034.31;5060999;28;45408;-56
2022/04/03 09:13:35;;;;;;;;;7.75;4.00;;;;;8.38;35.37;102035.19;5060977;28;45421;-54
2022/04/03 09:16:00;;;;;;;;;8.50;6.00;;;;;8.46;35.79;102043.09;5060738;28;45510;-54
2022/04/03 09:18:53;;;;;;;;;5.00;4.00;;;;;8.48;34.67;102043.94;5060787;28;45362;-53
2022/04/03 09:21:22;;;;;;;;;4.00;4.00;;;;;8.50;34.63;102047.47;5060935;28;45245;-54
2022/04/03 09:24:09;;;;;;;;;8.00;6.25;;;;;8.48;34.10;102057.31;5060849;28;45646;-54
2022/04/03 09:26:35;;;;;;;;;5.00;4.00;;;;;8.48;34.16;102051.97;5060242;28;45904;-54
2022/04/03 09:29:17;;;;;;;;;5.50;5.50;;;;;8.48;33.18;102041.28;5060716;28;45284;-56
2022/04/03 09:31:45;;;;;;;;;4.50;3.75;;;;;8.49;33.71;102041.25;5060866;28;45367;-53
2022/04/03 09:34:16;;;;;;;;;3.00;3.00;;;;;8.51;33.01;102036.75;5060193;28;45994;-55
2022/04/03 09:36:41;;;;;;;;;3.00;3.00;;;;;8.53;32.92;102037.59;5060683;28;46109;-55
2022/04/03 09:39:16;;;;;;;;;3.75;3.75;;;;;8.59;32.17;102039.31;5060576;28;45308;-54
2022/04/03 09:42:03;;;;;;;;;4.00;2.75;;;;;8.63;33.03;102044.56;5060036;28;45423;-62
2022/04/03 09:44:33;;;;;;;;;3.00;3.00;;;;;8.69;31.56;102040.88;5060328;28;45414;-54
2022/04/03 09:47:19;;;;;;;;;3.75;2.00;;;;;8.71;30.75;102029.28;5060046;28;46383;-53
2022/04/03 09:49:51;;;;;;;;;3.00;3.00;;;;;8.73;30.67;102035.47;5059147;28;45345;-55
2022/04/03 09:52:41;;;;;;;;;1.25;1.00;;;;;8.74;30.79;102041.72;5060285;28;45364;-54
2022/04/03 09:55:17;;;;;;;;;4.00;2.75;;;;;8.73;30.00;102045.28;5059825;28;45358;-54
2022/04/03 09:57:48;;;;;;;;;2.75;2.75;;;;;8.69;29.72;102032.88;5059520;28;46975;-54
2022/04/03 10:00:34;;;;;;;;;2.25;2.00;;;;;8.66;29.91;102028.47;5059893;28;45388;-56
2022/04/03 10:03:02;;;;;;;;;4.00;3.00;;;;;8.70;29.66;102042.66;5059990;28;45327;-53
2022/04/03 10:05:29;;;;;;;;;1.50;1.00;;;;;8.71;29.98;102039.97;5060009;28;45663;-53
2022/04/03 10:07:59;;;;;;;;;3.75;1.25;;;;;8.74;29.64;102031.03;5060046;28;46170;-56
2022/04/03 10:10:26;;;;;;;;;1.75;1.75;;;;;8.68;30.12;102023.09;5060054;28;45246;-54
2022/04/03 10:12:53;;;;;;;;;1.50;1.00;;;;;8.66;29.69;102017.78;5041646;28;45403;-52
2022/04/03 10:15:18;;;;;;;;;3.00;2.00;;;;;8.76;30.25;102042.56;5060166;28;45375;-53
2022/04/03 10:17:43;;;;;;;;;2.25;2.25;;;;;8.77;30.09;102032.72;5059486;28;45476;-54
2022/04/03 10:20:09;;;;;;;;;2.00;1.00;;;;;8.81;30.23;102030.00;5059788;28;45341;-52
2022/04/03 10:22:39;;;;;;;;;4.00;3.00;;;;;8.83;30.29;102029.97;5059777;28;45498;-52
2022/04/03 10:25:11;;;;;;;;;3.00;2.50;;;;;8.87;30.02;102031.66;5059694;28;45890;-52
2022/04/03 10:27:39;;;;;;;;;5.25;2.25;;;;;8.93;29.67;102036.94;5059249;28;46304;-53
2022/04/03 10:30:06;;;;;;;;;1.00;1.00;;;;;8.98;30.41;102035.91;5059868;28;45285;-51
2022/04/03 10:32:34;;;;;;;;;3.00;1.00;;;;;8.98;29.50;102025.22;5059741;28;45362;-51
2022/04/03 10:35:03;;;;;;;;;2.25;1.00;;;;;9.01;29.94;102032.31;5059516;28;46080;-53
2022/04/03 10:37:31;;;;;;;;;2.75;1.75;;;;;9.04;29.69;102018.84;5059516;28;47098;-54
2022/04/03 10:40:10;;;;;;;;;2.00;1.00;;;;;9.14;30.19;102022.25;5059699;28;45339;-55
2022/04/03 10:43:05;;;;;;;;;2.00;2.00;;;;;9.24;29.45;102018.47;5059163;28;45365;-55
2022/04/03 10:45:46;;;;;;;;;1.25;1.00;;;;;9.41;29.89;102021.69;5059541;28;45467;-51
2022/04/03 10:48:20;;;;;;;;;4.00;2.00;;;;;9.56;29.76;102021.38;5059408;28;46057;-53
2022/04/03 10:50:59;;;;;;;;;3.00;2.00;;;;;9.68;29.41;102022.91;5059348;28;45415;-50
2022/04/03 10:53:26;;;;;;;;;6.50;4.00;;;;;9.79;29.93;102016.38;5059498;28;45307;-54
2022/04/03 10:55:55;;;;;;;;;2.00;2.00;;;;;9.90;29.82;102007.22;5059079;28;46093;-53
2022/04/03 10:58:21;;;;;;;;;3.00;3.00;;;;;10.00;30.08;102000.75;5059251;28;46242;-55
2022/04/03 11:00:48;;;;;;;;;2.75;2.75;;;;;10.08;29.11;101999.66;5059087;28;45301;-54
2022/04/03 11:03:13;;;;;;;;;2.25;2.25;;;;;10.19;29.40;101997.63;5059061;28;45448;-52
2022/04/03 11:05:39;;;;;;;;;2.75;2.00;;;;;10.27;29.05;102008.16;5059196;28;46219;-54
2022/04/03 11:08:04;;;;;;;;;3.75;2.75;;;;;10.32;28.34;102008.03;5059068;28;47024;-54
2022/04/03 11:10:48;;;;;;;;;3.50;2.00;;;;;10.26;27.94;101987.63;5059167;28;45345;-52
2022/04/03 11:13:14;;;;;;;;;3.75;2.00;;;;;10.34;28.54;101987.44;5058750;28;45487;-56
2022/04/03 11:15:51;;;;;;;;;4.00;3.25;;;;;10.40;28.07;101989.97;5058933;28;45425;-53
2022/04/03 11:18:25;;;;;;;;;3.00;3.00;;;;;10.42;28.78;101994.38;5040623;28;47653;-56
2022/04/03 11:21:11;;;;;;;;;7.00;2.00;;;;;10.47;28.29;101980.84;5058980;28;45282;-55
2022/04/03 11:24:05;;;;;;;;;3.50;3.50;;;;;10.55;28.23;101977.03;5059220;28;45411;-53
2022/04/03 11:26:32;;;;;;;;;4.00;4.00;;;;;10.54;27.89;101961.91;5058550;28;45381;-55
2022/04/03 11:28:58;;;;;;;;;2.00;2.00;;;;;10.72;27.83;101979.25;5058835;28;46905;-50
2022/04/03 11:31:24;;;;;;;;;2.50;2.50;;;;;10.89;27.75;101977.00;5059095;28;45511;-54
2022/04/03 11:33:49;;;;;;;;;4.00;3.00;;;;;11.00;28.16;101960.63;5058904;28;45323;-56
2022/04/03 11:36:17;;;;;;;;;3.00;2.50;;;;;11.29;26.75;101974.09;5058877;28;45245;-58
2022/04/03 11:38:47;;;;;;;;;3.75;3.75;;;;;11.59;27.31;101960.66;5058835;28;46040;-54
2022/04/03 11:41:20;;;;;;;;;5.00;3.00;;;;;11.77;26.39;101949.38;5058572;28;45364;-54
2022/04/03 11:44:07;;;;;;;;;2.50;2.00;;;;;12.01;26.14;101948.59;5058919;28;45316;-56
2022/04/03 11:46:40;;;;;;;;;4.00;4.00;;;;;11.99;26.09;101931.63;5058653;28;45431;-54
2022/04/03 11:49:14;;;;;;;;;4.00;4.00;;;;;12.00;25.52;101949.50;5049970;28;45452;-53
2022/04/03 11:51:41;;;;;;;;;3.25;3.25;;;;;12.26;26.85;101958.53;5058326;28;45515;-55
2022/04/03 11:54:06;;;;;;;;;2.00;2.00;;;;;12.41;25.79;101953.53;5056663;28;45319;-54
2022/04/03 11:56:35;;;;;;;;;3.00;3.00;;;;;12.81;25.96;101938.66;5056813;28;45422;-55
2022/04/03 11:59:02;;;;;;;;;4.00;4.00;;;;;13.30;24.91;101936.88;5057508;28;47024;-55
2022/04/03 12:01:28;;;;;;;;;3.25;3.25;;;;;13.74;24.82;101932.44;5058127;28;45335;-54
2022/04/03 12:04:00;;;;;;;;;3.00;3.00;;;;;14.26;23.88;101931.19;5058328;28;45419;-54
2022/04/03 12:06:26;;;;;;;;;4.50;3.25;;;;;14.71;23.08;101931.94;5058171;28;45355;-55
2022/04/03 12:08:52;;;;;;;;;6.50;3.75;;;;;15.11;22.86;101908.53;5057949;28;46318;-55
2022/04/03 12:11:24;;;;;;;;;5.00;5.00;;;;;15.55;22.56;101933.50;5039787;28;45386;-54
2022/04/03 12:14:00;;;;;;;;;5.25;4.00;;;;;15.84;23.04;101919.44;5060170;28;45241;-59
2022/04/03 12:16:31;;;;;;;;;4.00;4.00;;;;;15.72;22.38;101906.53;5059712;28;45344;-59
2022/04/03 12:18:59;;;;;;;;;8.00;5.25;;;;;15.38;22.86;101904.53;5057305;28;46345;-58
2022/04/03 12:21:44;;;;;;;;;9.00;6.00;;;;;15.45;22.95;101924.03;5058619;28;45343;-58
2022/04/03 12:24:20;;;;;;;;;6.00;6.00;;;;;15.85;23.51;101929.31;5060041;28;45339;-58
2022/04/03 12:26:54;;;;;;;;;4.25;2.50;;;;;15.53;22.41;101927.25;5059175;28;45517;-59
2022/04/03 12:29:21;;;;;;;;;1.25;1.25;;;;;15.95;23.63;101920.75;5058673;28;46178;-60
2022/04/03 12:31:57;;;;;;;;;5.50;4.25;;;;;16.65;22.41;101918.06;5059620;28;45665;-59
2022/04/03 12:34:22;;;;;;;;;4.00;4.00;;;;;17.03;21.52;101910.59;5059234;28;45353;-60
2022/04/03 12:36:53;;;;;;;;;1.75;1.75;;;;;17.24;20.92;101913.97;5059239;28;45491;-60
2022/04/03 12:39:44;;;;;;;;;3.50;3.50;;;;;17.76;19.98;101907.41;5058985;28;45470;-59
2022/04/03 12:42:29;;;;;;;;;4.75;3.25;;;;;17.76;20.69;101915.53;5059073;28;45355;-62
2022/04/03 12:45:15;;;;;;;;;5.00;3.75;;;;;17.98;21.26;101909.72;5051044;28;45407;-57
2022/04/03 12:47:57;;;;;;;;;6.25;4.75;;;;;17.40;21.47;101907.59;5047293;28;45736;-61
2022/04/03 12:50:30;;;;;;;;;4.25;4.00;;;;;16.90;22.33;101918.50;5040733;28;46920;-56
2022/04/03 12:53:02;;;;;;;;;10.00;7.00;;;;;16.56;22.11;101907.69;5060675;28;45870;-55
2022/04/03 12:55:34;;;;;;;;;6.00;6.00;;;;;16.23;22.70;101919.28;5062054;28;45604;-59
2022/04/03 13:01:06;;;;;;;;;5.00;4.00;;;;;15.36;22.87;101908.25;5053473;28;45672;-57
2022/04/03 13:03:37;;;;;;;;;2.75;2.75;;;;;14.98;22.99;101910.03;5063675;28;45781;-57
2022/04/03 13:06:16;;;;;;;;;2.00;2.00;;;;;15.90;22.60;101920.97;5072446;28;45359;-55
2022/04/03 13:08:47;;;;;;;;;4.50;3.00;;;;;17.19;21.65;101913.31;5057801;28;45445;-54
2022/04/03 13:11:37;;;;;;;;;5.00;4.00;;;;;18.65;20.10;101915.72;5059834;28;46090;-55
2022/04/03 13:14:35;;;;;;;;;4.25;3.00;;;;;20.08;18.88;101901.06;5059380;28;45316;-52
2022/04/03 13:17:04;;;;;;;;;5.25;3.25;;;;;20.73;18.16;101883.84;5033666;28;45375;-48
2022/04/03 13:19:38;;;;;;;;;6.50;3.50;;;;;21.25;17.94;101887.47;5059199;28;45534;-53
2022/04/03 13:22:05;;;;;;;;;5.25;5.25;;;;;20.99;17.37;101882.00;5060767;28;45931;-52
2022/04/03 13:24:31;;;;;;;;;3.00;3.00;;;;;20.35;18.48;101896.50;5060475;28;45340;-53
2022/04/03 13:26:59;;;;;;;;;5.50;4.25;;;;;19.59;18.32;101894.31;5049023;28;45303;-51
2022/04/03 13:29:25;;;;;;;;;4.25;2.75;;;;;19.76;18.71;101878.72;5060523;28;45293;-50
2022/04/03 13:31:52;;;;;;;;;2.50;2.50;;;;;20.46;17.91;101888.50;5060655;28;45288;-57
2022/04/03 13:34:18;;;;;;;;;3.00;3.00;;;;;20.58;17.89;101871.31;5060285;28;45289;-52
2022/04/03 13:36:44;;;;;;;;;4.00;2.75;;;;;20.07;18.23;101853.06;5059086;28;45356;-49
2022/04/03 13:39:11;;;;;;;;;0.25;0.25;;;;;19.56;18.61;101889.06;5060171;28;45356;-51
2022/04/03 13:41:38;;;;;;;;;4.50;4.00;;;;;18.82;18.74;101885.69;5060323;28;45403;-50
2022/04/03 13:44:07;;;;;;;;;4.00;3.25;;;;;18.26;18.91;101898.13;5060343;28;45259;-52
2022/04/03 13:46:33;;;;;;;;;3.00;3.00;;;;;18.07;18.87;101898.34;5059035;28;45386;-53
2022/04/03 13:48:59;;;;;;;;;5.50;3.50;;;;;18.72;19.21;101881.78;5059747;28;45403;-54
2022/04/03 13:51:24;;;;;;;;;2.25;2.25;;;;;18.94;19.08;101881.34;5059951;28;46103;-50
2022/04/03 13:53:50;;;;;;;;;4.25;3.75;;;;;19.16;18.54;101871.72;5055979;28;45384;-53
2022/04/03 13:56:17;;;;;;;;;4.50;4.50;;;;;19.13;18.69;101876.50;5051754;28;45580;-48
2022/04/03 13:58:42;;;;;;;;;6.00;3.75;;;;;19.79;18.86;101887.59;5059795;28;45509;-53
2022/04/03 14:01:09;;;;;;;;;6.50;3.25;;;;;20.60;18.57;101863.00;5060257;28;46178;-49
2022/04/03 14:03:34;;;;;;;;;4.00;4.00;;;;;21.62;17.39;101869.25;5059770;28;45412;-51
2022/04/03 14:06:01;;;;;;;;;4.50;4.50;;;;;22.58;16.32;101868.22;5060195;28;45200;-53
2022/04/03 14:08:27;;;;;;;;;4.00;4.00;;;;;22.87;16.21;101864.13;5059853;28;45537;-50
2022/04/03 14:10:54;;;;;;;;;2.25;1.75;;;;;22.39;16.20;101857.88;5059457;28;46228;-52
2022/04/03 14:13:23;;;;;;;;;5.00;3.00;;;;;21.77;16.43;101859.94;5059726;28;45384;-53
2022/04/03 14:15:52;;;;;;;;;6.25;5.25;;;;;21.38;16.48;101855.56;5059935;28;45370;-52
2022/04/03 14:18:20;;;;;;;;;4.75;3.50;;;;;20.92;17.08;101866.19;5059718;28;45379;-52
2022/04/03 14:20:46;;;;;;;;;3.50;3.50;;;;;21.33;16.93;101863.22;5059623;28;47155;-51
2022/04/03 14:23:12;;;;;;;;;2.00;2.00;;;;;21.96;16.41;101865.72;5059757;28;45416;-52
2022/04/03 14:25:37;;;;;;;;;3.75;3.75;;;;;22.78;16.12;101845.72;5059729;28;45469;-52
2022/04/03 14:28:04;;;;;;;;;6.00;4.00;;;;;23.51;15.04;101847.06;5045957;28;45424;-50
2022/04/03 14:30:30;;;;;;;;;5.00;3.00;;;;;23.90;15.34;101831.94;5059509;28;46068;-52
2022/04/03 14:32:57;;;;;;;;;6.50;6.50;;;;;23.70;14.64;101841.81;5059341;28;45328;-53
2022/04/03 14:35:25;;;;;;;;;7.25;5.25;;;;;22.75;15.67;101845.06;5059699;28;45371;-52
2022/04/03 14:37:52;;;;;;;;;5.00;5.00;;;;;21.83;16.03;101846.69;5058750;28;45499;-50
2022/04/03 14:40:17;;;;;;;;;6.75;5.00;;;;;20.92;17.10;101847.09;5059448;28;45458;-51
2022/04/03 14:42:43;;;;;;;;;5.25;5.25;;;;;20.57;18.40;101842.31;5059043;28;45429;-52
2022/04/03 14:45:10;;;;;;;;;7.00;5.00;;;;;21.05;17.98;101837.03;5059458;28;45353;-50
2022/04/03 14:47:35;;;;;;;;;5.50;3.50;;;;;21.54;17.77;101842.53;5059328;28;45416;-50
2022/04/03 14:50:04;;;;;;;;;4.50;4.50;;;;;21.65;17.38;101831.69;5059235;28;46409;-52
2022/04/03 14:52:30;;;;;;;;;7.50;6.50;;;;;21.14;17.59;101842.72;5059336;28;45410;-50
2022/04/03 14:54:57;;;;;;;;;3.75;3.75;;;;;20.63;18.23;101835.53;5058991;28;45523;-52
2022/04/03 14:57:23;;;;;;;;;5.00;5.00;;;;;20.09;18.38;101832.91;5058839;28;45391;-50
2022/04/03 14:59:49;;;;;;;;;4.75;4.75;;;;;19.62;18.22;101844.28;5058947;28;46247;-49
2022/04/03 15:02:14;;;;;;;;;4.00;3.75;;;;;19.64;19.14;101826.03;5058772;28;45282;-52
2022/04/03 15:04:39;;;;;;;;;3.75;3.75;;;;;20.14;18.85;101841.66;5059105;28;45277;-50
2022/04/03 15:07:10;;;;;;;;;5.00;4.50;;;;;20.69;18.39;101832.38;5059136;28;45317;-50
2022/04/03 15:09:36;;;;;;;;;5.00;5.00;;;;;21.15;17.71;101824.50;5058966;28;46064;-49
2022/04/03 15:12:04;;;;;;;;;6.00;4.25;;;;;21.61;16.81;101834.75;5059063;28;45354;-47
2022/04/03 15:14:29;;;;;;;;;5.25;5.25;;;;;21.99;17.65;101835.50;5059107;28;45349;-48
2022/04/03 15:16:56;;;;;;;;;5.00;5.00;;;;;22.04;16.72;101835.13;5058737;28;45471;-49
2022/04/03 15:19:22;;;;;;;;;5.50;4.50;;;;;21.59;17.63;101844.94;5058828;28;47168;-51
2022/04/03 15:21:48;;;;;;;;;7.50;5.75;;;;;20.93;17.47;101843.38;5058868;28;45303;-50
2022/04/03 15:24:13;;;;;;;;;5.50;4.25;;;;;20.18;18.21;101837.72;5058865;28;45482;-49
2022/04/03 15:26:39;;;;;;;;;5.50;5.50;;;;;19.44;18.48;101837.31;5045398;28;46045;-52
2022/04/03 15:29:05;;;;;;;;;5.00;5.00;;;;;18.69;19.23;101833.97;5058437;28;46004;-52
2022/04/03 15:31:30;;;;;;;;;5.75;5.50;;;;;18.16;19.85;101845.34;5058798;28;45836;-51
2022/04/03 15:33:56;;;;;;;;;9.75;7.00;;;;;17.58;20.07;101832.47;5058681;28;45392;-51
2022/04/03 15:36:23;;;;;;;;;6.00;6.00;;;;;17.20;20.80;101850.91;5057524;28;45314;-53
2022/04/03 15:38:49;;;;;;;;;8.25;8.00;;;;;16.67;21.51;101836.75;5058437;28;46091;-52
2022/04/03 15:41:16;;;;;;;;;6.50;6.25;;;;;16.44;21.47;101838.81;5058657;28;45232;-50
2022/04/03 15:43:42;;;;;;;;;6.50;5.00;;;;;16.15;21.66;101850.28;5058911;28;45485;-52
2022/04/03 15:46:07;;;;;;;;;6.00;6.00;;;;;15.80;21.89;101838.56;5058716;28;46237;-51
2022/04/03 15:48:34;;;;;;;;;5.00;5.00;;;;;15.56;22.27;101845.19;5059396;28;45423;-49
2022/04/03 15:50:59;;;;;;;;;8.25;8.00;;;;;15.30;23.17;101844.59;5062173;28;45334;-49
2022/04/03 15:53:25;;;;;;;;;6.25;6.25;;;;;15.09;23.14;101851.00;5061441;28;45845;-49
2022/04/03 15:55:53;;;;;;;;;7.00;7.00;;;;;14.94;23.29;101849.00;5050404;28;45432;-50
2022/04/03 15:58:18;;;;;;;;;8.50;7.00;;;;;14.72;23.01;101844.59;5061934;28;45340;-52
2022/04/03 16:00:44;;;;;;;;;7.00;7.00;;;;;14.73;23.58;101846.34;5062185;28;45341;-49
2022/04/03 16:03:09;;;;;;;;;7.00;7.00;;;;;14.83;23.43;101848.63;5061736;28;45348;-50